createdAt,value
2022-12-03T00:02:22.359Z,3.73
2022-12-03T00:05:33.912Z,3.81
2022-12-03T00:08:45.564Z,3.81
2022-12-03T00:12:02.020Z,3.81
2022-12-03T00:15:26.863Z,3.70
2022-12-03T00:19:15.188Z,3.76
2022-12-03T00:22:55.716Z,3.75
2022-12-03T00:26:14.654Z,3.79
2022-12-03T00:29:35.983Z,3.79
2022-12-03T00:32:44.107Z,3.71
2022-12-03T00:36:09.419Z,3.78
2022-12-03T00:39:32.251Z,3.68
2022-12-03T00:42:49.394Z,3.70
2022-12-03T00:46:22.120Z,3.71
2022-12-03T00:49:38.521Z,3.70
2022-12-03T00:53:01.588Z,3.78
2022-12-03T00:56:28.616Z,3.77
2022-12-03T00:59:59.917Z,3.65
2022-12-03T01:03:07.023Z,3.73
2022-12-03T01:06:18.899Z,3.67
2022-12-03T01:09:24.702Z,3.57
2022-12-03T01:12:38.620Z,3.61
2022-12-03T01:16:04.853Z,3.66
2022-12-03T01:19:25.068Z,3.62
2022-12-03T01:22:48.049Z,3.61
2022-12-03T01:26:10.041Z,3.73
2022-12-03T01:29:27.901Z,3.68
2022-12-03T01:32:50.960Z,3.67
2022-12-03T01:39:38.140Z,3.58
2022-12-03T01:42:48.955Z,3.63
2022-12-03T01:46:16.027Z,3.66
2022-12-03T01:50:00.124Z,3.72
2022-12-03T01:53:15.676Z,3.80
2022-12-03T01:56:30.671Z,3.74
2022-12-03T01:59:40.030Z,3.83
2022-12-03T02:02:45.570Z,3.81
2022-12-03T02:05:55.403Z,3.78
2022-12-03T02:09:10.674Z,3.73
2022-12-03T02:12:32.777Z,3.35
2022-12-03T02:15:53.592Z,3.53
2022-12-03T02:19:15.594Z,3.70
2022-12-03T02:22:38.628Z,3.74
2022-12-03T02:25:50.772Z,3.75
2022-12-03T02:28:57.524Z,3.68
2022-12-03T02:32:02.754Z,3.77
2022-12-03T02:35:21.201Z,3.70
2022-12-03T02:38:27.071Z,3.63
2022-12-03T02:42:05.471Z,3.71
2022-12-03T02:45:25.403Z,3.72
2022-12-03T02:48:40.988Z,3.71
2022-12-03T02:51:56.956Z,3.75
2022-12-03T02:55:30.712Z,3.58
2022-12-03T02:58:56.014Z,3.63
2022-12-03T03:02:26.988Z,3.58
2022-12-03T03:05:41.825Z,3.69
2022-12-03T03:09:01.185Z,3.74
2022-12-03T03:12:11.963Z,3.70
2022-12-03T03:15:24.579Z,3.64
2022-12-03T03:18:33.704Z,3.67
2022-12-03T03:21:47.701Z,3.59
2022-12-03T03:25:06.108Z,3.70
2022-12-03T03:28:25.668Z,3.63
2022-12-03T03:31:51.774Z,3.68
2022-12-03T03:35:13.923Z,3.59
2022-12-03T03:38:34.870Z,3.66
2022-12-03T03:41:56.911Z,3.81
2022-12-03T03:45:29.138Z,3.76
2022-12-03T03:48:52.514Z,3.64
2022-12-03T03:52:16.219Z,3.80
2022-12-03T03:55:29.699Z,3.64
2022-12-03T03:58:53.785Z,3.67
2022-12-03T04:02:27.289Z,3.62
2022-12-03T04:05:42.464Z,3.71
2022-12-03T04:08:57.772Z,3.75
2022-12-03T04:12:25.792Z,3.78
2022-12-03T04:15:44.793Z,3.87
2022-12-03T04:19:02.828Z,3.81
2022-12-03T04:22:45.558Z,3.86
2022-12-03T04:26:44.277Z,3.94
2022-12-03T04:30:07.450Z,4.05
2022-12-03T04:33:43.087Z,4.05
2022-12-03T04:36:54.148Z,3.98
2022-12-03T04:40:39.443Z,4.01
2022-12-03T04:44:37.635Z,3.81
2022-12-03T04:47:44.187Z,3.77
2022-12-03T04:50:57.505Z,3.45
2022-12-03T04:54:11.902Z,3.51
2022-12-03T04:57:19.244Z,3.75
2022-12-03T05:00:29.523Z,3.75
2022-12-03T05:03:47.436Z,3.59
2022-12-03T05:07:06.687Z,3.61
2022-12-03T05:10:36.972Z,3.28
2022-12-03T05:13:54.322Z,3.21
2022-12-03T05:17:17.251Z,3.37
2022-12-03T05:20:51.465Z,3.40
2022-12-03T05:24:08.908Z,3.61
2022-12-03T05:27:24.192Z,3.60
2022-12-03T05:30:50.399Z,3.66
2022-12-03T05:34:09.319Z,3.66
2022-12-03T05:37:31.591Z,3.49
2022-12-03T05:40:53.686Z,3.40
2022-12-03T05:44:20.812Z,3.40
2022-12-03T05:47:37.244Z,3.57
2022-12-03T05:51:00.395Z,3.48
2022-12-03T05:54:07.694Z,3.51
2022-12-03T05:57:32.314Z,3.38
2022-12-03T06:01:10.606Z,3.34
2022-12-03T06:04:26.383Z,3.72
2022-12-03T06:07:50.637Z,3.64
2022-12-03T06:11:16.415Z,3.59
2022-12-03T06:14:40.431Z,3.59
2022-12-03T06:17:57.537Z,3.57
2022-12-03T06:21:24.047Z,3.78
2022-12-03T06:24:40.253Z,3.90
2022-12-03T06:28:04.539Z,3.88
2022-12-03T06:31:19.341Z,3.96
2022-12-03T06:34:27.805Z,3.93
2022-12-03T06:37:33.995Z,3.87
2022-12-03T06:40:46.126Z,3.85
2022-12-03T06:44:11.317Z,3.93
2022-12-03T06:47:33.254Z,3.92
2022-12-03T06:50:50.839Z,3.83
2022-12-03T06:54:12.807Z,3.72
2022-12-03T06:57:23.786Z,3.92
2022-12-03T07:00:41.907Z,3.99
2022-12-03T07:04:07.265Z,4.18
2022-12-03T07:07:15.514Z,4.25
2022-12-03T07:10:32.228Z,4.26
2022-12-03T07:13:48.994Z,4.25
2022-12-03T07:17:01.574Z,4.30
2022-12-03T07:20:22.358Z,4.20
2022-12-03T07:23:35.649Z,3.99
2022-12-03T07:26:42.635Z,4.01
2022-12-03T07:29:56.548Z,4.05
2022-12-03T07:33:05.685Z,4.13
2022-12-03T07:36:23.937Z,4.28
2022-12-03T07:39:43.242Z,4.20
2022-12-03T07:43:11.746Z,4.31
2022-12-03T07:46:23.210Z,4.45
2022-12-03T07:49:52.922Z,4.28
2022-12-03T07:53:16.914Z,4.33
2022-12-03T07:56:38.990Z,4.47
2022-12-03T08:00:01.302Z,4.42
2022-12-03T08:03:26.519Z,4.49
2022-12-03T08:06:51.521Z,4.55
2022-12-03T08:10:08.366Z,4.64
2022-12-03T08:13:32.010Z,4.68
2022-12-03T08:16:41.145Z,4.70
2022-12-03T08:19:50.930Z,4.73
2022-12-03T08:23:07.011Z,4.69
2022-12-03T08:26:35.331Z,4.76
2022-12-03T08:29:48.193Z,4.73
2022-12-03T08:32:59.943Z,4.79
2022-12-03T08:36:23.950Z,4.98
2022-12-03T08:39:48.610Z,5.03
2022-12-03T08:43:04.299Z,5.02
2022-12-03T08:46:32.129Z,4.99
2022-12-03T08:50:09.954Z,5.11
2022-12-03T08:53:50.104Z,5.13
2022-12-03T08:57:45.485Z,5.26
2022-12-03T09:01:11.895Z,5.25
2022-12-03T09:04:44.851Z,5.40
2022-12-03T09:08:03.957Z,5.47
2022-12-03T09:11:33.774Z,5.33
2022-12-03T09:15:09.450Z,5.29
2022-12-03T09:18:19.625Z,5.48
2022-12-03T09:21:30.585Z,5.51
2022-12-03T09:24:34.403Z,5.54
2022-12-03T09:27:45.020Z,5.55
2022-12-03T09:30:51.838Z,5.71
2022-12-03T09:33:56.591Z,5.75
2022-12-03T09:37:04.260Z,5.76
2022-12-03T09:40:24.552Z,5.98
2022-12-03T09:44:04.036Z,6.09
2022-12-03T09:47:13.027Z,5.97
2022-12-03T09:50:35.040Z,6.20
2022-12-03T09:53:52.760Z,6.28
2022-12-03T09:57:18.677Z,6.17
2022-12-03T10:00:42.698Z,6.37
2022-12-03T10:04:08.183Z,6.38
2022-12-03T10:07:21.194Z,6.51
2022-12-03T10:10:40.267Z,6.76
2022-12-03T10:13:51.812Z,6.85
2022-12-03T10:17:18.580Z,7.03
2022-12-03T10:20:37.885Z,6.91
2022-12-03T10:24:17.827Z,6.94
2022-12-03T10:27:37.895Z,7.06
2022-12-03T10:31:01.725Z,6.99
2022-12-03T10:34:24.873Z,6.68
2022-12-03T10:37:50.071Z,6.48
2022-12-03T10:41:24.094Z,6.05
2022-12-03T10:44:33.850Z,6.18
2022-12-03T10:48:17.858Z,5.86
2022-12-03T10:51:29.298Z,5.75
2022-12-03T10:54:51.588Z,5.97
2022-12-03T10:57:59.920Z,5.92
2022-12-03T11:01:22.827Z,5.81
2022-12-03T11:04:39.807Z,6.45
2022-12-03T11:07:57.050Z,6.53
2022-12-03T11:11:45.057Z,6.63
2022-12-03T11:15:06.843Z,6.68
2022-12-03T11:18:09.918Z,6.74
2022-12-03T11:21:25.485Z,6.96
2022-12-03T11:24:44.767Z,6.97
2022-12-03T11:28:42.533Z,7.08
2022-12-03T11:31:59.931Z,7.30
2022-12-03T11:35:37.470Z,7.61
2022-12-03T11:39:15.480Z,8.10
2022-12-03T11:42:38.323Z,7.99
2022-12-03T11:46:07.420Z,8.18
2022-12-03T11:49:35.720Z,8.59
2022-12-03T11:52:49.741Z,8.49
2022-12-03T11:56:16.771Z,8.55
2022-12-03T11:59:39.810Z,8.51
2022-12-03T12:02:57.497Z,8.08
2022-12-03T12:06:26.930Z,7.85
2022-12-03T12:09:54.806Z,7.97
2022-12-03T12:13:04.173Z,8.26
2022-12-03T12:16:38.830Z,8.40
2022-12-03T12:19:54.644Z,8.54
2022-12-03T12:23:25.437Z,8.43
2022-12-03T12:26:39.445Z,8.44
2022-12-03T12:29:59.313Z,8.27
2022-12-03T12:33:23.605Z,8.13
2022-12-03T12:36:42.360Z,8.11
2022-12-03T12:39:55.206Z,8.20
2022-12-03T12:43:25.155Z,7.74
2022-12-03T12:46:48.884Z,7.43
2022-12-03T12:50:11.346Z,7.66
2022-12-03T12:53:37.463Z,7.74
2022-12-03T12:56:58.968Z,7.51
2022-12-03T13:00:24.584Z,7.52
2022-12-03T13:03:49.596Z,7.47
2022-12-03T13:06:57.168Z,7.33
2022-12-03T13:10:35.277Z,7.28
2022-12-03T13:14:03.959Z,7.26
2022-12-03T13:17:24.792Z,7.32
2022-12-03T13:20:31.640Z,7.49
2022-12-03T13:23:52.358Z,7.41
2022-12-03T13:27:17.369Z,7.51
2022-12-03T13:30:43.554Z,7.43
2022-12-03T13:34:15.482Z,7.49
2022-12-03T13:37:37.116Z,7.50
2022-12-03T13:40:44.995Z,7.23
2022-12-03T13:43:53.419Z,7.25
2022-12-03T13:47:12.213Z,7.43
2022-12-03T13:50:32.282Z,7.29
2022-12-03T13:53:40.601Z,7.43
2022-12-03T13:56:54.363Z,7.25
2022-12-03T14:00:11.107Z,7.21
2022-12-03T14:03:32.746Z,7.20
2022-12-03T14:06:54.914Z,7.11
2022-12-03T14:10:19.045Z,6.99
2022-12-03T14:13:42.079Z,7.07
2022-12-03T14:17:03.234Z,7.02
2022-12-03T14:20:21.908Z,7.18
2022-12-03T14:23:44.007Z,7.05
2022-12-03T14:27:12.145Z,7.20
2022-12-03T14:30:15.177Z,7.20
2022-12-03T14:33:18.940Z,7.12
2022-12-03T14:36:40.450Z,7.08
2022-12-03T14:39:49.427Z,7.08
2022-12-03T14:43:14.201Z,7.16
2022-12-03T14:46:37.879Z,6.92
2022-12-03T14:50:20.990Z,6.98
2022-12-03T14:54:05.303Z,6.87
2022-12-03T14:57:16.982Z,6.76
2022-12-03T15:00:24.022Z,6.84
2022-12-03T15:03:30.614Z,6.76
2022-12-03T15:06:58.756Z,6.79
2022-12-03T15:10:17.753Z,6.77
2022-12-03T15:13:41.025Z,6.75
2022-12-03T15:16:50.789Z,6.74
2022-12-03T15:20:14.524Z,6.65
2022-12-03T15:23:40.863Z,6.64
2022-12-03T15:27:05.432Z,6.57
2022-12-03T15:30:26.658Z,6.54
2022-12-03T15:33:48.498Z,6.50
2022-12-03T15:37:09.554Z,6.46
2022-12-03T15:40:35.833Z,6.41
2022-12-03T15:44:04.569Z,6.32
2022-12-03T15:47:24.769Z,6.22
2022-12-03T15:50:47.453Z,6.20
2022-12-03T15:53:55.879Z,6.17
2022-12-03T15:57:19.704Z,6.13
2022-12-03T16:00:35.909Z,6.01
2022-12-03T16:03:52.301Z,6.05
2022-12-03T16:07:17.683Z,5.99
2022-12-03T16:10:33.616Z,5.96
2022-12-03T16:13:37.543Z,5.86
2022-12-03T16:16:53.796Z,5.75
2022-12-03T16:20:23.086Z,5.67
2022-12-03T16:23:47.710Z,5.64
2022-12-03T16:26:58.682Z,5.56
2022-12-03T16:30:03.925Z,5.57
2022-12-03T16:33:10.521Z,5.54
2022-12-03T16:36:19.755Z,5.55
2022-12-03T16:39:36.818Z,5.53
2022-12-03T16:42:42.326Z,5.47
2022-12-03T16:46:21.754Z,5.47
2022-12-03T16:49:46.548Z,5.41
2022-12-03T16:53:03.878Z,5.42
2022-12-03T16:56:15.710Z,5.44
2022-12-03T16:59:27.018Z,5.36
2022-12-03T17:02:40.384Z,5.38
2022-12-03T17:05:44.999Z,5.44
2022-12-03T17:09:01.524Z,5.50
2022-12-03T17:13:08.317Z,5.47
2022-12-03T17:16:13.404Z,5.40
2022-12-03T17:19:25.955Z,5.35
2022-12-03T17:22:40.346Z,5.43
2022-12-03T17:25:57.660Z,5.46
2022-12-03T17:29:18.804Z,5.51
2022-12-03T17:32:35.575Z,5.48
2022-12-03T17:36:02.952Z,5.38
2022-12-03T17:39:19.538Z,5.38
2022-12-03T17:42:52.266Z,5.24
2022-12-03T17:46:20.103Z,5.23
2022-12-03T17:49:38.524Z,5.22
2022-12-03T17:52:58.684Z,5.23
2022-12-03T17:56:17.857Z,5.15
2022-12-03T17:59:41.436Z,5.17
2022-12-03T18:03:04.481Z,5.23
2022-12-03T18:06:30.544Z,5.15
2022-12-03T18:09:53.017Z,5.13
2022-12-03T18:13:14.227Z,5.16
2022-12-03T18:16:35.647Z,5.14
2022-12-03T18:19:55.715Z,5.06
2022-12-03T18:23:12.605Z,5.10
2022-12-03T18:26:27.101Z,5.13
2022-12-03T18:29:31.928Z,5.09
2022-12-03T18:32:54.097Z,5.15
2022-12-03T18:36:06.713Z,5.15
2022-12-03T18:39:38.018Z,5.04
2022-12-03T18:42:41.193Z,5.11
2022-12-03T18:45:56.717Z,5.01
2022-12-03T18:49:05.406Z,5.05
2022-12-03T18:52:14.876Z,5.07
2022-12-03T18:55:23.542Z,5.00
2022-12-03T18:58:45.300Z,5.01
2022-12-03T19:02:05.396Z,4.96
2022-12-03T19:05:29.434Z,4.99
2022-12-03T19:08:59.308Z,4.91
2022-12-03T19:12:15.011Z,4.88
2022-12-03T19:15:33.583Z,4.85
2022-12-03T19:18:55.430Z,4.79
2022-12-03T19:22:20.210Z,4.87
2022-12-03T19:25:41.307Z,4.81
2022-12-03T19:28:57.264Z,4.77
2022-12-03T19:32:24.376Z,4.75
2022-12-03T19:35:46.551Z,4.76
2022-12-03T19:39:10.218Z,4.73
2022-12-03T19:42:36.974Z,4.69
2022-12-03T19:45:55.583Z,4.78
2022-12-03T19:49:12.539Z,4.82
2022-12-03T19:52:26.279Z,4.81
2022-12-03T19:55:52.397Z,4.59
2022-12-03T19:59:14.572Z,4.64
2022-12-03T20:02:38.421Z,4.78
2022-12-03T20:05:46.041Z,4.83
2022-12-03T20:09:06.346Z,4.74
2022-12-03T20:12:14.083Z,4.74
2022-12-03T20:15:30.147Z,4.65
2022-12-03T20:18:53.142Z,4.61
2022-12-03T20:22:11.127Z,4.60
2022-12-03T20:25:37.066Z,4.57
2022-12-03T20:28:53.238Z,4.69
2022-12-03T20:32:21.111Z,4.69
2022-12-03T20:35:24.351Z,4.71
2022-12-03T20:38:53.030Z,4.75
2022-12-03T20:42:29.980Z,4.79
2022-12-03T20:45:55.038Z,4.76
2022-12-03T20:49:17.076Z,4.76
2022-12-03T20:52:36.256Z,4.82
2022-12-03T20:56:04.107Z,4.81
2022-12-03T20:59:23.672Z,4.80
2022-12-03T21:02:43.127Z,4.77
2022-12-03T21:06:07.249Z,4.72
2022-12-03T21:09:25.186Z,4.72
2022-12-03T21:12:48.321Z,4.64
2022-12-03T21:16:16.300Z,4.63
2022-12-03T21:19:39.290Z,4.70
2022-12-03T21:22:58.250Z,4.59
2022-12-03T21:26:18.366Z,4.54
2022-12-03T21:29:21.955Z,4.49
2022-12-03T21:32:28.195Z,4.62
2022-12-03T21:36:00.890Z,4.52
2022-12-03T21:39:32.852Z,4.58
2022-12-03T21:43:09.994Z,4.57
2022-12-03T21:47:10.569Z,4.51
2022-12-03T21:49:59.196Z,4.44
2022-12-03T21:53:03.101Z,4.51
2022-12-03T21:56:34.072Z,4.53
2022-12-03T21:59:58.061Z,4.63
2022-12-03T22:03:14.219Z,4.67
2022-12-03T22:06:25.660Z,4.67
2022-12-03T22:09:35.366Z,4.56
2022-12-03T22:13:00.118Z,4.52
2022-12-03T22:16:06.604Z,4.52
2022-12-03T22:19:10.650Z,4.63
2022-12-03T22:22:16.364Z,4.63
2022-12-03T22:25:23.984Z,4.62
2022-12-03T22:28:40.080Z,4.56
2022-12-03T22:31:46.158Z,4.52
2022-12-03T22:34:50.222Z,4.59
2022-12-03T22:38:04.594Z,4.58
2022-12-03T22:41:25.008Z,4.49
2022-12-03T22:44:44.714Z,4.67
2022-12-03T22:47:47.859Z,4.69
2022-12-03T22:50:57.313Z,4.43
2022-12-03T22:54:08.280Z,4.45
2022-12-03T22:57:30.139Z,4.43
2022-12-03T23:01:02.522Z,4.48
2022-12-03T23:04:38.689Z,4.47
2022-12-03T23:08:15.176Z,4.51
2022-12-03T23:11:48.095Z,4.60
2022-12-03T23:15:05.460Z,4.41
2022-12-03T23:18:31.527Z,4.54
2022-12-03T23:21:48.819Z,4.55
2022-12-03T23:25:08.666Z,4.63
2022-12-03T23:28:34.647Z,4.64
2022-12-03T23:32:05.610Z,4.72
2022-12-03T23:35:22.620Z,4.71
2022-12-03T23:38:43.536Z,4.66
2022-12-03T23:42:08.756Z,4.72
2022-12-03T23:45:27.539Z,4.55
2022-12-03T23:48:50.612Z,4.63
2022-12-03T23:52:12.763Z,4.67
2022-12-03T23:55:38.100Z,4.71
2022-12-03T23:58:56.623Z,4.66
